sensor_id;sensor_type;location;lat;lon;timestamp;pressure;altitude;pressure_sealevel;temperature;humidity
7333;BME280;3707;43.618;25.342;2023-03-14T00:02:21;100420.72;;;7.19;63.00
7333;BME280;3707;43.618;25.342;2023-03-14T00:04:48;100438.16;;;7.26;62.57
7333;BME280;3707;43.618;25.342;2023-03-14T00:07:15;100431.44;;;7.31;62.79
7333;BME280;3707;43.618;25.342;2023-03-14T00:09:42;100398.06;;;7.09;62.61
7333;BME280;3707;43.618;25.342;2023-03-14T00:12:08;100413.09;;;7.22;62.71
7333;BME280;3707;43.618;25.342;2023-03-14T00:14:35;100408.75;;;7.21;62.82
7333;BME280;3707;43.618;25.342;2023-03-14T00:17:02;100423.47;;;7.24;64.51
7333;BME280;3707;43.618;25.342;2023-03-14T00:19:30;100419.91;;;7.20;63.68
7333;BME280;3707;43.618;25.342;2023-03-14T00:21:57;100400.25;;;6.98;64.15
7333;BME280;3707;43.618;25.342;2023-03-14T00:24:24;100417.09;;;7.14;63.78
7333;BME280;3707;43.618;25.342;2023-03-14T00:26:51;100393.00;;;7.12;64.36
7333;BME280;3707;43.618;25.342;2023-03-14T00:29:17;100399.03;;;7.13;63.83
7333;BME280;3707;43.618;25.342;2023-03-14T00:31:44;100395.31;;;7.05;64.41
7333;BME280;3707;43.618;25.342;2023-03-14T00:34:11;100374.38;;;6.95;64.89
7333;BME280;3707;43.618;25.342;2023-03-14T00:36:39;100390.25;;;7.08;64.84
7333;BME280;3707;43.618;25.342;2023-03-14T00:39:06;100377.00;;;6.97;65.68
7333;BME280;3707;43.618;25.342;2023-03-14T00:41:33;100295.09;;;6.38;66.90
7333;BME280;3707;43.618;25.342;2023-03-14T00:43:59;100383.38;;;6.83;67.49
7333;BME280;3707;43.618;25.342;2023-03-14T00:46:26;100336.78;;;6.52;68.08
7333;BME280;3707;43.618;25.342;2023-03-14T00:48:53;100380.59;;;6.77;68.24
7333;BME280;3707;43.618;25.342;2023-03-14T00:51:20;100386.56;;;6.76;68.47
7333;BME280;3707;43.618;25.342;2023-03-14T00:53:48;100380.88;;;6.84;68.10
7333;BME280;3707;43.618;25.342;2023-03-14T00:56:14;100380.63;;;6.78;68.16
7333;BME280;3707;43.618;25.342;2023-03-14T00:58:41;100344.72;;;6.58;67.51
7333;BME280;3707;43.618;25.342;2023-03-14T01:01:09;100276.69;;;6.27;66.70
7333;BME280;3707;43.618;25.342;2023-03-14T01:03:37;100345.16;;;6.70;65.33
7333;BME280;3707;43.618;25.342;2023-03-14T01:06:09;100368.03;;;6.86;65.30
7333;BME280;3707;43.618;25.342;2023-03-14T01:08:36;100364.00;;;6.94;65.38
7333;BME280;3707;43.618;25.342;2023-03-14T01:11:09;100364.22;;;7.00;68.09
7333;BME280;3707;43.618;25.342;2023-03-14T01:13:36;100280.38;;;6.35;70.01
7333;BME280;3707;43.618;25.342;2023-03-14T01:16:05;100380.41;;;6.96;72.57
7333;BME280;3707;43.618;25.342;2023-03-14T01:18:33;100341.88;;;6.75;72.82
7333;BME280;3707;43.618;25.342;2023-03-14T01:21:00;100381.84;;;6.88;74.44
7333;BME280;3707;43.618;25.342;2023-03-14T01:23:27;100365.84;;;6.73;75.14
7333;BME280;3707;43.618;25.342;2023-03-14T01:25:54;100382.94;;;6.71;75.64
7333;BME280;3707;43.618;25.342;2023-03-14T01:28:22;100384.81;;;6.75;75.25
7333;BME280;3707;43.618;25.342;2023-03-14T01:30:49;100358.19;;;6.51;75.23
7333;BME280;3707;43.618;25.342;2023-03-14T01:33:15;100363.13;;;6.44;75.82
7333;BME280;3707;43.618;25.342;2023-03-14T01:35:42;100371.13;;;6.52;75.64
7333;BME280;3707;43.618;25.342;2023-03-14T01:38:09;100350.88;;;6.37;76.18
7333;BME280;3707;43.618;25.342;2023-03-14T01:40:41;100362.34;;;6.47;77.40
7333;BME280;3707;43.618;25.342;2023-03-14T01:43:14;100351.34;;;6.27;77.93
7333;BME280;3707;43.618;25.342;2023-03-14T01:46:12;100357.34;;;6.28;79.41
7333;BME280;3707;43.618;25.342;2023-03-14T01:48:45;100307.50;;;5.80;81.58
7333;BME280;3707;43.618;25.342;2023-03-14T01:51:16;100366.53;;;5.97;82.58
7333;BME280;3707;43.618;25.342;2023-03-14T01:53:45;100368.19;;;5.95;83.44
7333;BME280;3707;43.618;25.342;2023-03-14T01:56:14;100368.34;;;6.00;84.07
7333;BME280;3707;43.618;25.342;2023-03-14T01:58:44;100384.56;;;5.97;84.79
7333;BME280;3707;43.618;25.342;2023-03-14T02:01:14;100380.81;;;5.89;85.75
7333;BME280;3707;43.618;25.342;2023-03-14T02:03:47;100379.44;;;5.77;87.30
7333;BME280;3707;43.618;25.342;2023-03-14T02:06:17;100365.16;;;5.63;88.12
7333;BME280;3707;43.618;25.342;2023-03-14T02:08:46;100363.97;;;5.55;88.82
7333;BME280;3707;43.618;25.342;2023-03-14T02:11:14;100359.59;;;5.52;89.26
7333;BME280;3707;43.618;25.342;2023-03-14T02:13:41;100352.91;;;5.57;88.97
7333;BME280;3707;43.618;25.342;2023-03-14T02:16:08;100357.06;;;5.54;87.77
7333;BME280;3707;43.618;25.342;2023-03-14T02:18:37;100348.78;;;5.38;88.30
7333;BME280;3707;43.618;25.342;2023-03-14T02:21:11;100322.06;;;5.14;88.83
7333;BME280;3707;43.618;25.342;2023-03-14T02:23:47;100361.47;;;5.35;88.49
7333;BME280;3707;43.618;25.342;2023-03-14T02:26:20;100364.78;;;5.31;88.85
7333;BME280;3707;43.618;25.342;2023-03-14T02:28:51;100363.81;;;5.29;87.92
7333;BME280;3707;43.618;25.342;2023-03-14T02:31:18;100367.19;;;5.28;89.24
7333;BME280;3707;43.618;25.342;2023-03-14T02:33:47;100363.63;;;5.25;88.34
7333;BME280;3707;43.618;25.342;2023-03-14T02:36:15;100365.34;;;5.24;91.77
7333;BME280;3707;43.618;25.342;2023-03-14T02:38:47;100354.22;;;5.25;93.25
7333;BME280;3707;43.618;25.342;2023-03-14T02:41:14;100333.59;;;5.03;96.67
7333;BME280;3707;43.618;25.342;2023-03-14T02:43:41;100363.38;;;5.19;98.55
7333;BME280;3707;43.618;25.342;2023-03-14T02:46:11;100365.94;;;5.19;99.54
7333;BME280;3707;43.618;25.342;2023-03-14T02:48:40;100367.53;;;5.15;99.01
7333;BME280;3707;43.618;25.342;2023-03-14T02:51:08;100359.16;;;5.00;99.93
7333;BME280;3707;43.618;25.342;2023-03-14T02:53:36;100347.97;;;4.98;99.38
7333;BME280;3707;43.618;25.342;2023-03-14T02:56:04;100332.03;;;4.86;98.90
7333;BME280;3707;43.618;25.342;2023-03-14T02:58:31;100345.88;;;4.89;98.57
7333;BME280;3707;43.618;25.342;2023-03-14T03:00:58;100330.59;;;4.72;96.00
7333;BME280;3707;43.618;25.342;2023-03-14T03:03:26;100332.59;;;4.79;94.74
7333;BME280;3707;43.618;25.342;2023-03-14T03:05:55;100358.69;;;4.88;94.75
7333;BME280;3707;43.618;25.342;2023-03-14T03:08:24;100338.25;;;4.70;95.40
7333;BME280;3707;43.618;25.342;2023-03-14T03:10:51;100359.38;;;4.84;96.90
7333;BME280;3707;43.618;25.342;2023-03-14T03:13:19;100345.50;;;4.80;96.85
7333;BME280;3707;43.618;25.342;2023-03-14T03:15:46;100336.00;;;4.78;96.96
7333;BME280;3707;43.618;25.342;2023-03-14T03:18:12;100356.56;;;4.98;94.75
7333;BME280;3707;43.618;25.342;2023-03-14T03:20:41;100341.81;;;4.94;94.65
7333;BME280;3707;43.618;25.342;2023-03-14T03:23:07;100343.31;;;4.89;96.00
7333;BME280;3707;43.618;25.342;2023-03-14T03:25:34;100337.72;;;4.79;97.80
7333;BME280;3707;43.618;25.342;2023-03-14T03:28:01;100325.44;;;4.72;99.22
7333;BME280;3707;43.618;25.342;2023-03-14T03:30:33;100320.38;;;4.73;99.72
7333;BME280;3707;43.618;25.342;2023-03-14T03:33:00;100308.09;;;4.66;100.00
7333;BME280;3707;43.618;25.342;2023-03-14T03:35:27;100301.88;;;4.61;99.84
7333;BME280;3707;43.618;25.342;2023-03-14T03:37:55;100288.50;;;4.68;95.82
7333;BME280;3707;43.618;25.342;2023-03-14T03:40:22;100299.75;;;4.72;93.46
7333;BME280;3707;43.618;25.342;2023-03-14T03:42:48;100284.47;;;4.75;91.36
7333;BME280;3707;43.618;25.342;2023-03-14T03:45:15;100274.63;;;4.85;87.97
7333;BME280;3707;43.618;25.342;2023-03-14T03:47:42;100265.75;;;4.98;84.83
7333;BME280;3707;43.618;25.342;2023-03-14T03:50:10;100268.81;;;5.32;80.99
7333;BME280;3707;43.618;25.342;2023-03-14T03:52:36;100275.13;;;5.40;79.40
7333;BME280;3707;43.618;25.342;2023-03-14T03:55:05;100243.50;;;5.43;77.85
7333;BME280;3707;43.618;25.342;2023-03-14T03:57:32;100271.03;;;5.68;74.68
7333;BME280;3707;43.618;25.342;2023-03-14T03:59:59;100244.97;;;5.59;74.41
7333;BME280;3707;43.618;25.342;2023-03-14T04:02:25;100282.66;;;5.80;73.23
7333;BME280;3707;43.618;25.342;2023-03-14T04:04:52;100211.19;;;5.49;72.78
7333;BME280;3707;43.618;25.342;2023-03-14T04:07:19;100270.94;;;5.87;72.80
7333;BME280;3707;43.618;25.342;2023-03-14T04:09:46;100260.72;;;5.88;71.33
7333;BME280;3707;43.618;25.342;2023-03-14T04:12:14;100250.53;;;5.91;71.41
7333;BME280;3707;43.618;25.342;2023-03-14T04:14:41;100277.25;;;5.95;70.57
7333;BME280;3707;43.618;25.342;2023-03-14T04:17:08;100277.63;;;5.83;77.27
7333;BME280;3707;43.618;25.342;2023-03-14T04:19:34;100282.25;;;5.70;83.32
7333;BME280;3707;43.618;25.342;2023-03-14T04:22:01;100290.56;;;5.63;95.05
7333;BME280;3707;43.618;25.342;2023-03-14T04:24:28;100292.13;;;5.37;100.00
7333;BME280;3707;43.618;25.342;2023-03-14T04:26:55;100298.34;;;5.21;100.00
7333;BME280;3707;43.618;25.342;2023-03-14T04:29:23;100299.09;;;5.17;100.00
7333;BME280;3707;43.618;25.342;2023-03-14T04:31:50;100299.50;;;5.07;100.00
7333;BME280;3707;43.618;25.342;2023-03-14T04:34:16;100297.53;;;4.79;100.00
7333;BME280;3707;43.618;25.342;2023-03-14T04:36:43;100263.06;;;4.54;100.00
7333;BME280;3707;43.618;25.342;2023-03-14T04:39:10;100285.03;;;4.68;100.00
7333;BME280;3707;43.618;25.342;2023-03-14T04:41:37;100277.53;;;4.32;100.00
7333;BME280;3707;43.618;25.342;2023-03-14T04:44:04;100270.50;;;4.47;100.00
7333;BME280;3707;43.618;25.342;2023-03-14T04:46:32;100268.06;;;4.50;100.00
7333;BME280;3707;43.618;25.342;2023-03-14T04:48:59;100279.97;;;4.48;100.00
7333;BME280;3707;43.618;25.342;2023-03-14T04:51:25;100287.25;;;4.59;100.00
7333;BME280;3707;43.618;25.342;2023-03-14T04:53:53;100287.69;;;4.69;100.00
7333;BME280;3707;43.618;25.342;2023-03-14T04:56:20;100286.00;;;4.70;100.00
7333;BME280;3707;43.618;25.342;2023-03-14T04:58:47;100250.09;;;4.50;100.00
7333;BME280;3707;43.618;25.342;2023-03-14T05:01:14;100287.59;;;4.68;100.00
7333;BME280;3707;43.618;25.342;2023-03-14T05:03:42;100278.63;;;4.77;100.00
7333;BME280;3707;43.618;25.342;2023-03-14T05:06:09;100275.72;;;4.70;100.00
7333;BME280;3707;43.618;25.342;2023-03-14T05:08:36;100265.34;;;4.67;100.00
7333;BME280;3707;43.618;25.342;2023-03-14T05:11:03;100266.22;;;4.67;100.00
7333;BME280;3707;43.618;25.342;2023-03-14T05:13:30;100262.00;;;4.69;100.00
7333;BME280;3707;43.618;25.342;2023-03-14T05:16:03;100255.66;;;4.82;100.00
7333;BME280;3707;43.618;25.342;2023-03-14T05:18:30;100255.66;;;4.82;100.00
7333;BME280;3707;43.618;25.342;2023-03-14T05:20:59;100257.72;;;4.90;100.00
7333;BME280;3707;43.618;25.342;2023-03-14T05:23:25;100264.69;;;4.93;100.00
7333;BME280;3707;43.618;25.342;2023-03-14T05:25:52;100257.28;;;5.00;100.00
7333;BME280;3707;43.618;25.342;2023-03-14T05:28:19;100248.38;;;4.92;100.00
7333;BME280;3707;43.618;25.342;2023-03-14T05:30:46;100264.38;;;5.06;100.00
7333;BME280;3707;43.618;25.342;2023-03-14T05:33:13;100265.78;;;5.20;100.00
7333;BME280;3707;43.618;25.342;2023-03-14T05:35:40;100273.72;;;5.26;100.00
7333;BME280;3707;43.618;25.342;2023-03-14T05:38:09;100271.22;;;5.28;100.00
7333;BME280;3707;43.618;25.342;2023-03-14T05:40:36;100265.25;;;5.29;100.00
7333;BME280;3707;43.618;25.342;2023-03-14T05:43:03;100273.25;;;5.36;100.00
7333;BME280;3707;43.618;25.342;2023-03-14T05:45:29;100266.72;;;5.44;100.00
7333;BME280;3707;43.618;25.342;2023-03-14T05:47:56;100265.44;;;5.56;100.00
7333;BME280;3707;43.618;25.342;2023-03-14T05:50:23;100267.16;;;5.57;100.00
7333;BME280;3707;43.618;25.342;2023-03-14T05:52:50;100276.13;;;5.66;100.00
7333;BME280;3707;43.618;25.342;2023-03-14T05:55:18;100277.00;;;5.89;100.00
7333;BME280;3707;43.618;25.342;2023-03-14T05:57:45;100264.38;;;5.73;100.00
7333;BME280;3707;43.618;25.342;2023-03-14T06:00:12;100267.72;;;6.16;100.00
7333;BME280;3707;43.618;25.342;2023-03-14T06:02:39;100266.81;;;6.39;100.00
7333;BME280;3707;43.618;25.342;2023-03-14T06:05:07;100273.50;;;6.34;100.00
7333;BME280;3707;43.618;25.342;2023-03-14T06:07:34;100272.31;;;6.50;100.00
7333;BME280;3707;43.618;25.342;2023-03-14T06:10:01;100277.00;;;6.36;100.00
7333;BME280;3707;43.618;25.342;2023-03-14T06:12:29;100273.38;;;6.31;100.00
7333;BME280;3707;43.618;25.342;2023-03-14T06:14:56;100274.81;;;6.23;100.00
7333;BME280;3707;43.618;25.342;2023-03-14T06:17:22;100251.63;;;5.98;100.00
7333;BME280;3707;43.618;25.342;2023-03-14T06:19:49;100254.28;;;6.25;100.00
7333;BME280;3707;43.618;25.342;2023-03-14T06:22:16;100253.88;;;6.38;100.00
7333;BME280;3707;43.618;25.342;2023-03-14T06:24:43;100223.25;;;6.20;100.00
7333;BME280;3707;43.618;25.342;2023-03-14T06:27:09;100281.34;;;6.63;100.00
7333;BME280;3707;43.618;25.342;2023-03-14T06:29:38;100265.28;;;6.44;100.00
7333;BME280;3707;43.618;25.342;2023-03-14T06:32:05;100277.63;;;6.80;100.00
7333;BME280;3707;43.618;25.342;2023-03-14T06:34:31;100287.59;;;6.96;100.00
7333;BME280;3707;43.618;25.342;2023-03-14T06:36:58;100268.50;;;6.89;100.00
7333;BME280;3707;43.618;25.342;2023-03-14T06:39:25;100280.22;;;7.07;97.07
7333;BME280;3707;43.618;25.342;2023-03-14T06:41:52;100289.78;;;7.11;94.48
7333;BME280;3707;43.618;25.342;2023-03-14T06:44:18;100282.72;;;7.32;100.00
7333;BME280;3707;43.618;25.342;2023-03-14T06:46:47;100259.19;;;7.78;100.00
7333;BME280;3707;43.618;25.342;2023-03-14T06:49:13;100242.44;;;7.35;100.00
7333;BME280;3707;43.618;25.342;2023-03-14T06:51:40;100243.41;;;7.39;96.56
7333;BME280;3707;43.618;25.342;2023-03-14T06:54:07;100258.28;;;7.47;93.33
7333;BME280;3707;43.618;25.342;2023-03-14T06:56:34;100259.66;;;7.63;93.70
7333;BME280;3707;43.618;25.342;2023-03-14T06:59:00;100257.31;;;7.72;95.73
7333;BME280;3707;43.618;25.342;2023-03-14T07:01:29;100237.38;;;7.67;91.94
7333;BME280;3707;43.618;25.342;2023-03-14T07:03:59;100261.75;;;7.76;91.43
7333;BME280;3707;43.618;25.342;2023-03-14T07:06:25;100188.53;;;7.74;100.00
7333;BME280;3707;43.618;25.342;2023-03-14T07:08:54;100232.69;;;7.83;92.92
7333;BME280;3707;43.618;25.342;2023-03-14T07:11:23;100251.06;;;7.94;90.21
7333;BME280;3707;43.618;25.342;2023-03-14T07:13:50;100244.88;;;7.89;89.16
7333;BME280;3707;43.618;25.342;2023-03-14T07:16:16;100222.59;;;7.91;86.65
7333;BME280;3707;43.618;25.342;2023-03-14T07:18:43;100245.88;;;8.24;89.98
7333;BME280;3707;43.618;25.342;2023-03-14T07:21:12;100234.66;;;8.56;100.00
7333;BME280;3707;43.618;25.342;2023-03-14T07:23:39;100246.81;;;8.59;87.92
7333;BME280;3707;43.618;25.342;2023-03-14T07:26:06;100245.75;;;8.51;84.39
7333;BME280;3707;43.618;25.342;2023-03-14T07:28:33;100247.72;;;8.61;82.70
7333;BME280;3707;43.618;25.342;2023-03-14T07:30:59;100247.09;;;8.71;78.35
7333;BME280;3707;43.618;25.342;2023-03-14T07:33:26;100253.50;;;8.85;76.75
7333;BME280;3707;43.618;25.342;2023-03-14T07:35:53;100244.97;;;8.89;76.49
7333;BME280;3707;43.618;25.342;2023-03-14T07:38:21;100245.97;;;8.94;75.14
7333;BME280;3707;43.618;25.342;2023-03-14T07:40:48;100237.47;;;9.00;74.57
7333;BME280;3707;43.618;25.342;2023-03-14T07:43:15;100247.94;;;9.04;74.44
7333;BME280;3707;43.618;25.342;2023-03-14T07:45:45;100239.97;;;9.32;77.04
7333;BME280;3707;43.618;25.342;2023-03-14T07:48:12;100246.91;;;9.33;71.20
7333;BME280;3707;43.618;25.342;2023-03-14T07:50:39;100243.78;;;9.48;69.83
7333;BME280;3707;43.618;25.342;2023-03-14T07:53:06;100118.03;;;8.77;66.63
7333;BME280;3707;43.618;25.342;2023-03-14T07:55:34;100243.53;;;9.78;67.56
7333;BME280;3707;43.618;25.342;2023-03-14T07:58:01;100241.00;;;9.79;64.86
7333;BME280;3707;43.618;25.342;2023-03-14T08:00:28;100236.88;;;9.89;64.55
7333;BME280;3707;43.618;25.342;2023-03-14T08:02:54;100211.84;;;9.89;66.32
7333;BME280;3707;43.618;25.342;2023-03-14T08:05:21;100223.44;;;10.08;67.18
7333;BME280;3707;43.618;25.342;2023-03-14T08:07:48;100230.00;;;9.91;61.52
7333;BME280;3707;43.618;25.342;2023-03-14T08:10:15;100226.28;;;9.77;62.52
7333;BME280;3707;43.618;25.342;2023-03-14T08:12:48;100221.31;;;9.89;62.87
7333;BME280;3707;43.618;25.342;2023-03-14T08:15:15;100197.06;;;9.84;64.14
7333;BME280;3707;43.618;25.342;2023-03-14T08:17:42;100226.97;;;10.13;64.98
7333;BME280;3707;43.618;25.342;2023-03-14T08:20:10;100222.09;;;10.27;63.33
7333;BME280;3707;43.618;25.342;2023-03-14T08:22:38;100201.22;;;10.19;61.59
7333;BME280;3707;43.618;25.342;2023-03-14T08:25:06;100204.22;;;10.42;64.21
7333;BME280;3707;43.618;25.342;2023-03-14T08:27:32;100218.28;;;10.56;61.96
7333;BME280;3707;43.618;25.342;2023-03-14T08:30:01;100198.47;;;10.60;59.92
7333;BME280;3707;43.618;25.342;2023-03-14T08:32:28;100196.88;;;10.68;57.56
7333;BME280;3707;43.618;25.342;2023-03-14T08:34:55;100213.66;;;10.89;58.19
7333;BME280;3707;43.618;25.342;2023-03-14T08:37:22;100199.94;;;10.97;58.53
7333;BME280;3707;43.618;25.342;2023-03-14T08:39:50;100191.03;;;10.79;57.13
7333;BME280;3707;43.618;25.342;2023-03-14T08:42:17;100104.28;;;10.59;57.84
7333;BME280;3707;43.618;25.342;2023-03-14T08:44:44;100166.94;;;10.86;55.94
7333;BME280;3707;43.618;25.342;2023-03-14T08:47:12;100191.78;;;11.29;58.47
7333;BME280;3707;43.618;25.342;2023-03-14T08:49:39;100156.13;;;11.16;54.88
7333;BME280;3707;43.618;25.342;2023-03-14T08:52:06;100182.44;;;11.43;54.98
7333;BME280;3707;43.618;25.342;2023-03-14T08:54:33;100158.88;;;11.28;55.20
7333;BME280;3707;43.618;25.342;2023-03-14T08:57:00;100172.25;;;11.59;55.86
7333;BME280;3707;43.618;25.342;2023-03-14T08:59:26;100171.28;;;11.51;54.12
7333;BME280;3707;43.618;25.342;2023-03-14T09:01:53;100155.47;;;11.32;54.12
7333;BME280;3707;43.618;25.342;2023-03-14T09:04:22;100160.94;;;11.52;54.15
7333;BME280;3707;43.618;25.342;2023-03-14T09:06:48;100161.03;;;11.61;54.83
7333;BME280;3707;43.618;25.342;2023-03-14T09:09:15;100161.78;;;11.53;54.52
7333;BME280;3707;43.618;25.342;2023-03-14T09:11:42;100147.09;;;11.56;58.21
7333;BME280;3707;43.618;25.342;2023-03-14T09:14:09;100151.72;;;11.77;55.41
7333;BME280;3707;43.618;25.342;2023-03-14T09:16:36;100147.59;;;11.94;54.84
7333;BME280;3707;43.618;25.342;2023-03-14T09:19:02;100146.72;;;11.95;53.58
7333;BME280;3707;43.618;25.342;2023-03-14T09:21:31;100138.88;;;11.90;52.98
7333;BME280;3707;43.618;25.342;2023-03-14T09:23:57;100110.09;;;11.71;53.20
7333;BME280;3707;43.618;25.342;2023-03-14T09:26:24;100138.84;;;11.89;52.85
7333;BME280;3707;43.618;25.342;2023-03-14T09:28:51;100120.69;;;11.92;53.04
7333;BME280;3707;43.618;25.342;2023-03-14T09:31:18;100117.31;;;11.99;53.88
7333;BME280;3707;43.618;25.342;2023-03-14T09:33:44;100136.47;;;12.10;54.29
7333;BME280;3707;43.618;25.342;2023-03-14T09:36:11;100124.44;;;12.21;54.33
7333;BME280;3707;43.618;25.342;2023-03-14T09:38:40;100122.03;;;12.41;53.90
7333;BME280;3707;43.618;25.342;2023-03-14T09:41:14;100125.44;;;12.35;54.17
7333;BME280;3707;43.618;25.342;2023-03-14T09:43:43;100113.25;;;12.28;53.35
7333;BME280;3707;43.618;25.342;2023-03-14T09:46:12;100114.09;;;12.26;52.77
7333;BME280;3707;43.618;25.342;2023-03-14T09:48:40;100045.50;;;12.07;51.69
7333;BME280;3707;43.618;25.342;2023-03-14T09:51:13;100088.25;;;12.49;50.87
7333;BME280;3707;43.618;25.342;2023-03-14T09:53:45;100098.75;;;12.58;48.81
7333;BME280;3707;43.618;25.342;2023-03-14T09:56:15;100095.38;;;12.71;48.43
7333;BME280;3707;43.618;25.342;2023-03-14T09:58:47;100090.25;;;12.83;48.04
7333;BME280;3707;43.618;25.342;2023-03-14T10:01:17;100102.44;;;12.87;47.28
7333;BME280;3707;43.618;25.342;2023-03-14T10:03:47;100055.47;;;12.66;46.59
7333;BME280;3707;43.618;25.342;2023-03-14T10:06:15;100087.72;;;12.93;46.31
7333;BME280;3707;43.618;25.342;2023-03-14T10:08:44;100073.03;;;13.05;46.58
7333;BME280;3707;43.618;25.342;2023-03-14T10:11:14;100070.41;;;13.05;45.63
7333;BME280;3707;43.618;25.342;2023-03-14T10:13:48;100068.81;;;13.26;44.52
7333;BME280;3707;43.618;25.342;2023-03-14T10:16:15;100061.00;;;13.23;44.97
7333;BME280;3707;43.618;25.342;2023-03-14T10:18:45;100066.22;;;13.29;45.70
7333;BME280;3707;43.618;25.342;2023-03-14T10:21:20;100061.06;;;13.48;45.59
7333;BME280;3707;43.618;25.342;2023-03-14T10:23:48;100051.50;;;13.37;43.58
7333;BME280;3707;43.618;25.342;2023-03-14T10:26:16;100045.44;;;13.54;44.24
7333;BME280;3707;43.618;25.342;2023-03-14T10:28:45;100037.69;;;13.69;43.78
7333;BME280;3707;43.618;25.342;2023-03-14T10:31:12;100041.13;;;13.59;44.68
7333;BME280;3707;43.618;25.342;2023-03-14T10:33:39;100022.03;;;13.81;45.75
7333;BME280;3707;43.618;25.342;2023-03-14T10:36:17;100012.50;;;13.72;45.87
7333;BME280;3707;43.618;25.342;2023-03-14T10:38:45;99987.28;;;13.82;45.90
7333;BME280;3707;43.618;25.342;2023-03-14T10:41:19;99975.13;;;13.93;46.42
7333;BME280;3707;43.618;25.342;2023-03-14T10:43:51;99996.84;;;14.00;45.99
7333;BME280;3707;43.618;25.342;2023-03-14T10:46:20;99965.59;;;13.97;44.27
7333;BME280;3707;43.618;25.342;2023-03-14T10:48:48;99969.00;;;14.30;45.84
7333;BME280;3707;43.618;25.342;2023-03-14T10:51:19;99965.53;;;14.44;44.03
7333;BME280;3707;43.618;25.342;2023-03-14T10:53:48;99948.13;;;14.52;44.85
7333;BME280;3707;43.618;25.342;2023-03-14T10:56:19;99944.69;;;14.44;43.42
7333;BME280;3707;43.618;25.342;2023-03-14T10:58:47;99935.06;;;14.55;44.12
7333;BME280;3707;43.618;25.342;2023-03-14T11:01:32;99928.94;;;14.65;44.05
7333;BME280;3707;43.618;25.342;2023-03-14T11:04:09;99920.28;;;14.58;43.38
7333;BME280;3707;43.618;25.342;2023-03-14T11:06:44;99892.50;;;14.42;41.92
7333;BME280;3707;43.618;25.342;2023-03-14T11:09:18;99920.31;;;14.48;40.12
7333;BME280;3707;43.618;25.342;2023-03-14T11:11:50;99899.38;;;14.60;39.90
7333;BME280;3707;43.618;25.342;2023-03-14T11:14:24;99896.66;;;14.84;37.62
7333;BME280;3707;43.618;25.342;2023-03-14T11:16:58;99901.75;;;15.07;38.13
7333;BME280;3707;43.618;25.342;2023-03-14T11:19:43;99897.34;;;15.19;40.39
7333;BME280;3707;43.618;25.342;2023-03-14T11:22:23;99884.19;;;15.28;38.76
7333;BME280;3707;43.618;25.342;2023-03-14T11:25:06;99844.25;;;15.14;39.04
7333;BME280;3707;43.618;25.342;2023-03-14T11:27:42;99867.56;;;15.40;38.88
7333;BME280;3707;43.618;25.342;2023-03-14T11:30:17;99860.56;;;15.44;39.55
7333;BME280;3707;43.618;25.342;2023-03-14T11:32:46;99859.66;;;15.45;39.19
7333;BME280;3707;43.618;25.342;2023-03-14T11:35:22;99847.63;;;15.28;38.17
7333;BME280;3707;43.618;25.342;2023-03-14T11:37:54;99845.03;;;15.25;38.00
7333;BME280;3707;43.618;25.342;2023-03-14T11:40:23;99843.31;;;15.24;37.79
7333;BME280;3707;43.618;25.342;2023-03-14T11:42:59;99843.06;;;15.58;38.48
7333;BME280;3707;43.618;25.342;2023-03-14T11:45:32;99829.00;;;15.71;37.31
7333;BME280;3707;43.618;25.342;2023-03-14T11:48:21;99824.47;;;15.85;37.25
7333;BME280;3707;43.618;25.342;2023-03-14T11:50:52;99815.69;;;15.94;37.01
7333;BME280;3707;43.618;25.342;2023-03-14T11:53:22;99821.56;;;16.14;37.18
7333;BME280;3707;43.618;25.342;2023-03-14T11:55:52;99811.91;;;16.19;37.65
7333;BME280;3707;43.618;25.342;2023-03-14T11:58:24;99809.06;;;16.35;36.89
7333;BME280;3707;43.618;25.342;2023-03-14T12:00:54;99802.88;;;16.43;36.25
7333;BME280;3707;43.618;25.342;2023-03-14T12:03:27;99796.03;;;16.32;36.34
7333;BME280;3707;43.618;25.342;2023-03-14T12:06:07;99784.84;;;16.20;37.14
7333;BME280;3707;43.618;25.342;2023-03-14T12:08:43;99781.41;;;16.16;36.69
7333;BME280;3707;43.618;25.342;2023-03-14T12:11:15;99768.22;;;16.24;37.04
7333;BME280;3707;43.618;25.342;2023-03-14T12:13:47;99738.75;;;16.11;36.91
7333;BME280;3707;43.618;25.342;2023-03-14T12:16:33;99735.97;;;16.23;35.93
7333;BME280;3707;43.618;25.342;2023-03-14T12:19:21;99739.34;;;16.33;36.25
7333;BME280;3707;43.618;25.342;2023-03-14T12:21:53;99720.22;;;16.29;36.63
7333;BME280;3707;43.618;25.342;2023-03-14T12:24:24;99732.13;;;16.49;36.26
7333;BME280;3707;43.618;25.342;2023-03-14T12:26:54;99725.09;;;16.54;36.14
7333;BME280;3707;43.618;25.342;2023-03-14T12:29:23;99721.53;;;16.61;35.91
7333;BME280;3707;43.618;25.342;2023-03-14T12:32:07;99718.03;;;16.62;35.96
7333;BME280;3707;43.618;25.342;2023-03-14T12:34:34;99694.53;;;16.54;36.20
7333;BME280;3707;43.618;25.342;2023-03-14T12:37:16;99682.25;;;16.59;36.45
7333;BME280;3707;43.618;25.342;2023-03-14T12:39:50;99699.53;;;16.72;36.39
7333;BME280;3707;43.618;25.342;2023-03-14T12:42:37;99702.97;;;16.76;35.72
7333;BME280;3707;43.618;25.342;2023-03-14T12:45:23;99692.63;;;16.67;36.03
7333;BME280;3707;43.618;25.342;2023-03-14T12:48:08;99691.63;;;16.74;36.34
7333;BME280;3707;43.618;25.342;2023-03-14T12:50:40;99687.59;;;17.07;35.20
7333;BME280;3707;43.618;25.342;2023-03-14T12:53:40;99691.13;;;17.04;35.17
7333;BME280;3707;43.618;25.342;2023-03-14T12:56:21;99648.50;;;16.96;35.41
7333;BME280;3707;43.618;25.342;2023-03-14T13:01:46;99662.53;;;17.40;36.68
7333;BME280;3707;43.618;25.342;2023-03-14T13:04:14;99664.53;;;17.71;36.11
7333;BME280;3707;43.618;25.342;2023-03-14T13:06:50;99666.88;;;17.85;36.09
7333;BME280;3707;43.618;25.342;2023-03-14T13:12:27;99657.88;;;17.54;37.41
7333;BME280;3707;43.618;25.342;2023-03-14T13:14:59;99663.09;;;17.57;37.85
7333;BME280;3707;43.618;25.342;2023-03-14T13:17:32;99661.19;;;17.63;37.74
7333;BME280;3707;43.618;25.342;2023-03-14T13:20:02;99642.69;;;17.71;37.94
7333;BME280;3707;43.618;25.342;2023-03-14T13:22:33;99658.63;;;17.62;37.66
7333;BME280;3707;43.618;25.342;2023-03-14T13:25:05;99646.50;;;17.55;38.19